Clemson, SC

8:47 PM EST on November 26, 2014 (GMT -0500)
Anderson Regional | Change Station
CLOSE
Current Station
Airport
Location: Anderson,
Elevation: 781 ft
Nearby Weather Stations

Elev 781 ft 34.50 °N, 82.71 °W | Updated 51 minutes ago

Mostly Cloudy
Mostly Cloudy
50 °F
Feels Like 50 °F
N
13
Wind Variable Wind from West
Gusts 22 mph

Today
High -- | Low -- °F
--% Chance of Precip.
Yesterday
High -- | Low -- °F
Precip. -- in
7:15 AM 5:21 PM
Waxing Crescent, 24% visible
Pressure 30.04 in
Visibility 10.0 miles
Clouds Few 12000 ft
Dew Point 24 °F
Humidity 36%
Rainfall 0.45 in
Snow Depth Not available.
UV 0 out of 12
Pollen .30 out of 12
Air Quality Not available.
Flu Activity Not available.
METAR KAND 270056Z AUTO 26011G19KT 10SM FEW120 10/M04 A3005 RMK AO2 SLP173 T01001044

More Conditions Fewer Conditions

Pressure 30.04 in
Visibility 10.0 miles
Clouds Few 12000 ft
Dew Point 24 °F
Humidity 36%
Rainfall 0.45 in
Snow Depth Not available.
UV 0 out of 12
Pollen .30 out of 12
Air Quality Not available.
Flu Activity Not available.
METAR KAND 270056Z AUTO 26011G19KT 10SM FEW120 10/M04 A3005 RMK AO2 SLP173 T01001044

More Conditions Fewer Conditions

10-Day Weather Forecast

Almanac

Astronomy

Nov. 26, 2014 Rise Set
Actual Time
Civil Twilight
Nautical Twilight
Astronomical Twilight
Moon
Length of Visible Light
Length of Day
Tomorrow will be .
, % of the Moon is Illuminated

Today's Extremes

State Highs State Lows

Community

WunderPhotos

Upload Photos

1,773,940 photos uploaded!

WunderBlogs® & News

Nearby

Air Quality

  Air Quality AQ Index Pollutant
Not available.

Snow Depth

Station Depth Elevation

Earthquake Activity

City Distance Mag. Time & Date
Minimum magnitude displayed is 2.5.

Coastal Water Temperatures

Place Temperature

Nearby Weather Stations